<?xml version="1.0" encoding="UTF-8" standalone="no" ?>
<gpx xmlns="http://www.topografix.com/GPX/1/1" xmlns:xsi="http://www.w3.org/2001/XMLSchema-instance" xsi:schemaLocation="http://www.topografix.com/GPX/1/1 http://www.topografix.com/GPX/1/1/gpx.xsd" version="1.1" creator="VisuGPX - https://www.visugpx.com">
  <metadata>
    <name>Clermont-Ferrand - Massat - Pau par François</name>
    <desc><![CDATA[Trajet effectué par François sur la "Diagonale du vide" en aout 2020]]></desc>
  </metadata>
  <trk>
    <name><![CDATA[route107]]></name>
    <trkseg>
      <trkpt lat="44.44018" lon="3.92657">
        <ele>657.3</ele>
        <time>2020-08-20T05:30:06Z</time>
      </trkpt>
      <trkpt lat="44.44053" lon="3.92782">
        <ele>655.6</ele>
        <time>2020-08-20T05:30:30Z</time>
      </trkpt>
      <trkpt lat="44.441" lon="3.92957">
        <ele>651.4</ele>
        <time>2020-08-20T05:30:45Z</time>
      </trkpt>
      <trkpt lat="44.44123" lon="3.9314">
        <ele>644.8</ele>
        <time>2020-08-20T05:31:00Z</time>
      </trkpt>
      <trkpt lat="44.44214" lon="3.93198">
        <ele>648.1</ele>
        <time>2020-08-20T05:36:12Z</time>
      </trkpt>
      <trkpt lat="44.44295" lon="3.93287">
        <ele>644.2</ele>
        <time>2020-08-20T05:36:32Z</time>
      </trkpt>
      <trkpt lat="44.44387" lon="3.93348">
        <ele>641.6</ele>
        <time>2020-08-20T05:36:52Z</time>
      </trkpt>
      <trkpt lat="44.44425" lon="3.93222">
        <ele>639.7</ele>
        <time>2020-08-20T05:37:12Z</time>
      </trkpt>
      <trkpt lat="44.44438" lon="3.93085">
        <ele>637.9</ele>
        <time>2020-08-20T05:37:37Z</time>
      </trkpt>
      <trkpt lat="44.44499" lon="3.92982">
        <ele>637.2</ele>
        <time>2020-08-20T05:38:38Z</time>
      </trkpt>
      <trkpt lat="44.44592" lon="3.92968">
        <ele>637.8</ele>
        <time>2020-08-20T05:39:43Z</time>
      </trkpt>
      <trkpt lat="44.44682" lon="3.93023">
        <ele>639</ele>
        <time>2020-08-20T05:40:50Z</time>
      </trkpt>
      <trkpt lat="44.44774" lon="3.93049">
        <ele>640.5</ele>
        <time>2020-08-20T05:41:52Z</time>
      </trkpt>
      <trkpt lat="44.44872" lon="3.93043">
        <ele>642.5</ele>
        <time>2020-08-20T05:42:52Z</time>
      </trkpt>
      <trkpt lat="44.44883" lon="3.92913">
        <ele>643.8</ele>
        <time>2020-08-20T05:43:27Z</time>
      </trkpt>
      <trkpt lat="44.4492" lon="3.92796">
        <ele>645</ele>
        <time>2020-08-20T05:43:57Z</time>
      </trkpt>
      <trkpt lat="44.44963" lon="3.92685">
        <ele>646.5</ele>
        <time>2020-08-20T05:44:27Z</time>
      </trkpt>
      <trkpt lat="44.45012" lon="3.92563">
        <ele>649.8</ele>
        <time>2020-08-20T05:44:57Z</time>
      </trkpt>
      <trkpt lat="44.45026" lon="3.92413">
        <ele>650.7</ele>
        <time>2020-08-20T05:45:17Z</time>
      </trkpt>
      <trkpt lat="44.45012" lon="3.92268">
        <ele>651.7</ele>
        <time>2020-08-20T05:45:37Z</time>
      </trkpt>
      <trkpt lat="44.44999" lon="3.92122">
        <ele>652.8</ele>
        <time>2020-08-20T05:46:02Z</time>
      </trkpt>
      <trkpt lat="44.44946" lon="3.92014">
        <ele>653.4</ele>
        <time>2020-08-20T05:46:27Z</time>
      </trkpt>
      <trkpt lat="44.44859" lon="3.91944">
        <ele>654</ele>
        <time>2020-08-20T05:46:57Z</time>
      </trkpt>
      <trkpt lat="44.44817" lon="3.91824">
        <ele>654.7</ele>
        <time>2020-08-20T05:47:27Z</time>
      </trkpt>
      <trkpt lat="44.44832" lon="3.91687">
        <ele>655.6</ele>
        <time>2020-08-20T05:47:57Z</time>
      </trkpt>
      <trkpt lat="44.44839" lon="3.91548">
        <ele>657.1</ele>
        <time>2020-08-20T05:48:27Z</time>
      </trkpt>
      <trkpt lat="44.44795" lon="3.91421">
        <ele>659.4</ele>
        <time>2020-08-20T05:48:57Z</time>
      </trkpt>
      <trkpt lat="44.44843" lon="3.91305">
        <ele>665</ele>
        <time>2020-08-20T05:49:22Z</time>
      </trkpt>
      <trkpt lat="44.44931" lon="3.9126">
        <ele>665.7</ele>
        <time>2020-08-20T05:49:37Z</time>
      </trkpt>
      <trkpt lat="44.45018" lon="3.91201">
        <ele>666.8</ele>
        <time>2020-08-20T05:49:52Z</time>
      </trkpt>
      <trkpt lat="44.45109" lon="3.91205">
        <ele>669.2</ele>
        <time>2020-08-20T05:50:07Z</time>
      </trkpt>
      <trkpt lat="44.4515" lon="3.91093">
        <ele>676.5</ele>
        <time>2020-08-20T05:50:27Z</time>
      </trkpt>
      <trkpt lat="44.45069" lon="3.9102">
        <ele>671.7</ele>
        <time>2020-08-20T05:50:47Z</time>
      </trkpt>
      <trkpt lat="44.45034" lon="3.90883">
        <ele>672.5</ele>
        <time>2020-08-20T05:51:17Z</time>
      </trkpt>
      <trkpt lat="44.44985" lon="3.90764">
        <ele>674.3</ele>
        <time>2020-08-20T05:51:47Z</time>
      </trkpt>
      <trkpt lat="44.44953" lon="3.90642">
        <ele>675.5</ele>
        <time>2020-08-20T05:52:17Z</time>
      </trkpt>
      <trkpt lat="44.45041" lon="3.90608">
        <ele>677.7</ele>
        <time>2020-08-20T05:52:42Z</time>
      </trkpt>
      <trkpt lat="44.45155" lon="3.90592">
        <ele>678</ele>
        <time>2020-08-20T05:53:02Z</time>
      </trkpt>
      <trkpt lat="44.45213" lon="3.90492">
        <ele>679.4</ele>
        <time>2020-08-20T05:53:22Z</time>
      </trkpt>
      <trkpt lat="44.45207" lon="3.90362">
        <ele>679.1</ele>
        <time>2020-08-20T05:53:47Z</time>
      </trkpt>
      <trkpt lat="44.45164" lon="3.90246">
        <ele>678.6</ele>
        <time>2020-08-20T05:54:07Z</time>
      </trkpt>
      <trkpt lat="44.45202" lon="3.90122">
        <ele>677.6</ele>
        <time>2020-08-20T05:54:22Z</time>
      </trkpt>
      <trkpt lat="44.45184" lon="3.89995">
        <ele>676.7</ele>
        <time>2020-08-20T05:54:37Z</time>
      </trkpt>
      <trkpt lat="44.45112" lon="3.89899">
        <ele>676</ele>
        <time>2020-08-20T05:55:02Z</time>
      </trkpt>
      <trkpt lat="44.45061" lon="3.89788">
        <ele>674.8</ele>
        <time>2020-08-20T05:55:37Z</time>
      </trkpt>
      <trkpt lat="44.45094" lon="3.89657">
        <ele>673.6</ele>
        <time>2020-08-20T05:56:17Z</time>
      </trkpt>
      <trkpt lat="44.45144" lon="3.89548">
        <ele>674.1</ele>
        <time>2020-08-20T05:56:52Z</time>
      </trkpt>
      <trkpt lat="44.45198" lon="3.89438">
        <ele>675.9</ele>
        <time>2020-08-20T05:57:27Z</time>
      </trkpt>
      <trkpt lat="44.45286" lon="3.89383">
        <ele>678.5</ele>
        <time>2020-08-20T05:58:02Z</time>
      </trkpt>
      <trkpt lat="44.45386" lon="3.8935">
        <ele>683.1</ele>
        <time>2020-08-20T05:58:37Z</time>
      </trkpt>
      <trkpt lat="44.45435" lon="3.89246">
        <ele>686.6</ele>
        <time>2020-08-20T05:59:07Z</time>
      </trkpt>
      <trkpt lat="44.45431" lon="3.89099">
        <ele>687.5</ele>
        <time>2020-08-20T05:59:42Z</time>
      </trkpt>
      <trkpt lat="44.45463" lon="3.8898">
        <ele>688.1</ele>
        <time>2020-08-20T06:00:12Z</time>
      </trkpt>
      <trkpt lat="44.45567" lon="3.88961">
        <ele>688.7</ele>
        <time>2020-08-20T06:00:42Z</time>
      </trkpt>
      <trkpt lat="44.45643" lon="3.89041">
        <ele>689.5</ele>
        <time>2020-08-20T06:01:22Z</time>
      </trkpt>
      <trkpt lat="44.45673" lon="3.89176">
        <ele>690.4</ele>
        <time>2020-08-20T06:02:07Z</time>
      </trkpt>
      <trkpt lat="44.4576" lon="3.89234">
        <ele>691.5</ele>
        <time>2020-08-20T06:02:47Z</time>
      </trkpt>
      <trkpt lat="44.45852" lon="3.89246">
        <ele>692.8</ele>
        <time>2020-08-20T06:03:22Z</time>
      </trkpt>
      <trkpt lat="44.45916" lon="3.89146">
        <ele>696</ele>
        <time>2020-08-20T06:03:57Z</time>
      </trkpt>
      <trkpt lat="44.45992" lon="3.89061">
        <ele>700</ele>
        <time>2020-08-20T06:04:32Z</time>
      </trkpt>
      <trkpt lat="44.46041" lon="3.88945">
        <ele>702.9</ele>
        <time>2020-08-20T06:05:07Z</time>
      </trkpt>
      <trkpt lat="44.46067" lon="3.88818">
        <ele>705.7</ele>
        <time>2020-08-20T06:05:47Z</time>
      </trkpt>
      <trkpt lat="44.46069" lon="3.88685">
        <ele>708.5</ele>
        <time>2020-08-20T06:06:32Z</time>
      </trkpt>
      <trkpt lat="44.46142" lon="3.88615">
        <ele>710.7</ele>
        <time>2020-08-20T06:07:17Z</time>
      </trkpt>
      <trkpt lat="44.46163" lon="3.8848">
        <ele>712.2</ele>
        <time>2020-08-20T06:07:52Z</time>
      </trkpt>
      <trkpt lat="44.46255" lon="3.88436">
        <ele>713.7</ele>
        <time>2020-08-20T06:08:32Z</time>
      </trkpt>
      <trkpt lat="44.46337" lon="3.88381">
        <ele>715.5</ele>
        <time>2020-08-20T06:09:12Z</time>
      </trkpt>
      <trkpt lat="44.46398" lon="3.88273">
        <ele>717.2</ele>
        <time>2020-08-20T06:09:52Z</time>
      </trkpt>
      <trkpt lat="44.46384" lon="3.88141">
        <ele>718.6</ele>
        <time>2020-08-20T06:10:27Z</time>
      </trkpt>
      <trkpt lat="44.46374" lon="3.8801">
        <ele>720.4</ele>
        <time>2020-08-20T06:11:07Z</time>
      </trkpt>
      <trkpt lat="44.46401" lon="3.87876">
        <ele>722.4</ele>
        <time>2020-08-20T06:11:47Z</time>
      </trkpt>
      <trkpt lat="44.46477" lon="3.87788">
        <ele>724.2</ele>
        <time>2020-08-20T06:12:27Z</time>
      </trkpt>
      <trkpt lat="44.46528" lon="3.87679">
        <ele>725.6</ele>
        <time>2020-08-20T06:13:02Z</time>
      </trkpt>
      <trkpt lat="44.46534" lon="3.87538">
        <ele>727.2</ele>
        <time>2020-08-20T06:13:42Z</time>
      </trkpt>
      <trkpt lat="44.46479" lon="3.87426">
        <ele>729.2</ele>
        <time>2020-08-20T06:14:22Z</time>
      </trkpt>
      <trkpt lat="44.46455" lon="3.87301">
        <ele>732</ele>
        <time>2020-08-20T06:15:12Z</time>
      </trkpt>
      <trkpt lat="44.46503" lon="3.87183">
        <ele>734</ele>
        <time>2020-08-20T06:15:52Z</time>
      </trkpt>
      <trkpt lat="44.46599" lon="3.8717">
        <ele>736.2</ele>
        <time>2020-08-20T06:16:41Z</time>
      </trkpt>
      <trkpt lat="44.46678" lon="3.8711">
        <ele>737.5</ele>
        <time>2020-08-20T06:17:11Z</time>
      </trkpt>
      <trkpt lat="44.46704" lon="3.86974">
        <ele>738.5</ele>
        <time>2020-08-20T06:17:41Z</time>
      </trkpt>
      <trkpt lat="44.46723" lon="3.86835">
        <ele>739.8</ele>
        <time>2020-08-20T06:18:16Z</time>
      </trkpt>
      <trkpt lat="44.46813" lon="3.86844">
        <ele>741.8</ele>
        <time>2020-08-20T06:18:46Z</time>
      </trkpt>
      <trkpt lat="44.46917" lon="3.86791">
        <ele>746.1</ele>
        <time>2020-08-20T06:19:11Z</time>
      </trkpt>
      <trkpt lat="44.47018" lon="3.86772">
        <ele>748.1</ele>
        <time>2020-08-20T06:19:36Z</time>
      </trkpt>
      <trkpt lat="44.47067" lon="3.86894">
        <ele>749.9</ele>
        <time>2020-08-20T06:20:01Z</time>
      </trkpt>
      <trkpt lat="44.47162" lon="3.86952">
        <ele>751.4</ele>
        <time>2020-08-20T06:20:26Z</time>
      </trkpt>
      <trkpt lat="44.4726" lon="3.87038">
        <ele>752.6</ele>
        <time>2020-08-20T06:20:51Z</time>
      </trkpt>
      <trkpt lat="44.47354" lon="3.87047">
        <ele>752.9</ele>
        <time>2020-08-20T06:21:11Z</time>
      </trkpt>
      <trkpt lat="44.47416" lon="3.86952">
        <ele>753.3</ele>
        <time>2020-08-20T06:21:41Z</time>
      </trkpt>
      <trkpt lat="44.47527" lon="3.86944">
        <ele>753.9</ele>
        <time>2020-08-20T06:22:06Z</time>
      </trkpt>
      <trkpt lat="44.47615" lon="3.86874">
        <ele>754.2</ele>
        <time>2020-08-20T06:22:31Z</time>
      </trkpt>
      <trkpt lat="44.47679" lon="3.86783">
        <ele>754.4</ele>
        <time>2020-08-20T06:22:51Z</time>
      </trkpt>
      <trkpt lat="44.47712" lon="3.86664">
        <ele>754.8</ele>
        <time>2020-08-20T06:23:11Z</time>
      </trkpt>
      <trkpt lat="44.47786" lon="3.86553">
        <ele>755.4</ele>
        <time>2020-08-20T06:23:36Z</time>
      </trkpt>
      <trkpt lat="44.47784" lon="3.86416">
        <ele>755.9</ele>
        <time>2020-08-20T06:24:01Z</time>
      </trkpt>
      <trkpt lat="44.47752" lon="3.8628">
        <ele>756.3</ele>
        <time>2020-08-20T06:24:36Z</time>
      </trkpt>
      <trkpt lat="44.47677" lon="3.862">
        <ele>757.2</ele>
        <time>2020-08-20T06:25:16Z</time>
      </trkpt>
      <trkpt lat="44.47579" lon="3.86222">
        <ele>758.3</ele>
        <time>2020-08-20T06:25:56Z</time>
      </trkpt>
      <trkpt lat="44.47488" lon="3.86275">
        <ele>759.4</ele>
        <time>2020-08-20T06:26:31Z</time>
      </trkpt>
      <trkpt lat="44.47437" lon="3.86149">
        <ele>760.9</ele>
        <time>2020-08-20T06:27:11Z</time>
      </trkpt>
      <trkpt lat="44.4739" lon="3.86031">
        <ele>762.1</ele>
        <time>2020-08-20T06:27:46Z</time>
      </trkpt>
      <trkpt lat="44.47361" lon="3.85904">
        <ele>763.3</ele>
        <time>2020-08-20T06:28:21Z</time>
      </trkpt>
      <trkpt lat="44.47267" lon="3.85858">
        <ele>766.7</ele>
        <time>2020-08-20T06:29:43Z</time>
      </trkpt>
      <trkpt lat="44.47167" lon="3.8586">
        <ele>769.1</ele>
        <time>2020-08-20T06:30:17Z</time>
      </trkpt>
      <trkpt lat="44.47072" lon="3.85855">
        <ele>772.9</ele>
        <time>2020-08-20T06:30:52Z</time>
      </trkpt>
      <trkpt lat="44.46972" lon="3.85832">
        <ele>777.4</ele>
        <time>2020-08-20T06:31:27Z</time>
      </trkpt>
      <trkpt lat="44.46967" lon="3.85703">
        <ele>782.3</ele>
        <time>2020-08-20T06:32:12Z</time>
      </trkpt>
      <trkpt lat="44.46998" lon="3.8557">
        <ele>785.5</ele>
        <time>2020-08-20T06:32:47Z</time>
      </trkpt>
      <trkpt lat="44.4699" lon="3.85425">
        <ele>789</ele>
        <time>2020-08-20T06:33:22Z</time>
      </trkpt>
      <trkpt lat="44.47029" lon="3.85296">
        <ele>792</ele>
        <time>2020-08-20T06:33:57Z</time>
      </trkpt>
      <trkpt lat="44.47121" lon="3.8524">
        <ele>794.9</ele>
        <time>2020-08-20T06:34:32Z</time>
      </trkpt>
      <trkpt lat="44.4719" lon="3.85148">
        <ele>797.4</ele>
        <time>2020-08-20T06:35:07Z</time>
      </trkpt>
      <trkpt lat="44.47176" lon="3.85005">
        <ele>799.6</ele>
        <time>2020-08-20T06:35:42Z</time>
      </trkpt>
      <trkpt lat="44.47096" lon="3.84927">
        <ele>802</ele>
        <time>2020-08-20T06:36:17Z</time>
      </trkpt>
      <trkpt lat="44.47063" lon="3.848">
        <ele>804.3</ele>
        <time>2020-08-20T06:36:52Z</time>
      </trkpt>
      <trkpt lat="44.4706" lon="3.84669">
        <ele>806.5</ele>
        <time>2020-08-20T06:37:32Z</time>
      </trkpt>
      <trkpt lat="44.47073" lon="3.84532">
        <ele>808.1</ele>
        <time>2020-08-20T06:38:07Z</time>
      </trkpt>
      <trkpt lat="44.47009" lon="3.84416">
        <ele>809.6</ele>
        <time>2020-08-20T06:38:42Z</time>
      </trkpt>
      <trkpt lat="44.47025" lon="3.84291">
        <ele>812</ele>
        <time>2020-08-20T06:39:32Z</time>
      </trkpt>
      <trkpt lat="44.47119" lon="3.84349">
        <ele>813.6</ele>
        <time>2020-08-20T06:40:12Z</time>
      </trkpt>
      <trkpt lat="44.47208" lon="3.84377">
        <ele>814.8</ele>
        <time>2020-08-20T06:40:42Z</time>
      </trkpt>
      <trkpt lat="44.47265" lon="3.84266">
        <ele>816.3</ele>
        <time>2020-08-20T06:41:17Z</time>
      </trkpt>
      <trkpt lat="44.47319" lon="3.84154">
        <ele>818.1</ele>
        <time>2020-08-20T06:41:57Z</time>
      </trkpt>
      <trkpt lat="44.47414" lon="3.84179">
        <ele>819.7</ele>
        <time>2020-08-20T06:42:32Z</time>
      </trkpt>
      <trkpt lat="44.47511" lon="3.84144">
        <ele>821.3</ele>
        <time>2020-08-20T06:43:07Z</time>
      </trkpt>
      <trkpt lat="44.4761" lon="3.84163">
        <ele>823</ele>
        <time>2020-08-20T06:43:43Z</time>
      </trkpt>
      <trkpt lat="44.47562" lon="3.84036">
        <ele>825.3</ele>
        <time>2020-08-20T06:44:28Z</time>
      </trkpt>
      <trkpt lat="44.47542" lon="3.83896">
        <ele>827.5</ele>
        <time>2020-08-20T06:45:08Z</time>
      </trkpt>
      <trkpt lat="44.47632" lon="3.83946">
        <ele>831.1</ele>
        <time>2020-08-20T06:46:23Z</time>
      </trkpt>
      <trkpt lat="44.47724" lon="3.83975">
        <ele>832.3</ele>
        <time>2020-08-20T06:46:58Z</time>
      </trkpt>
      <trkpt lat="44.47819" lon="3.83937">
        <ele>833.6</ele>
        <time>2020-08-20T06:47:33Z</time>
      </trkpt>
      <trkpt lat="44.47897" lon="3.84031">
        <ele>835.3</ele>
        <time>2020-08-20T06:48:13Z</time>
      </trkpt>
      <trkpt lat="44.47993" lon="3.84044">
        <ele>837.9</ele>
        <time>2020-08-20T06:48:48Z</time>
      </trkpt>
      <trkpt lat="44.48083" lon="3.84025">
        <ele>842.4</ele>
        <time>2020-08-20T06:49:23Z</time>
      </trkpt>
      <trkpt lat="44.48158" lon="3.83949">
        <ele>847.4</ele>
        <time>2020-08-20T06:49:58Z</time>
      </trkpt>
      <trkpt lat="44.48239" lon="3.83887">
        <ele>851.8</ele>
        <time>2020-08-20T06:50:33Z</time>
      </trkpt>
      <trkpt lat="44.48335" lon="3.83875">
        <ele>855.1</ele>
        <time>2020-08-20T06:51:08Z</time>
      </trkpt>
      <trkpt lat="44.4842" lon="3.83835">
        <ele>857.3</ele>
        <time>2020-08-20T06:51:38Z</time>
      </trkpt>
      <trkpt lat="44.48494" lon="3.83755">
        <ele>859.4</ele>
        <time>2020-08-20T06:52:13Z</time>
      </trkpt>
      <trkpt lat="44.48597" lon="3.83737">
        <ele>861.8</ele>
        <time>2020-08-20T06:52:48Z</time>
      </trkpt>
      <trkpt lat="44.48686" lon="3.83657">
        <ele>869.6</ele>
        <time>2020-08-20T06:53:13Z</time>
      </trkpt>
      <trkpt lat="44.48786" lon="3.83616">
        <ele>873.4</ele>
        <time>2020-08-20T06:53:38Z</time>
      </trkpt>
      <trkpt lat="44.48837" lon="3.83492">
        <ele>876</ele>
        <time>2020-08-20T06:54:03Z</time>
      </trkpt>
      <trkpt lat="44.48892" lon="3.83388">
        <ele>876.9</ele>
        <time>2020-08-20T06:54:23Z</time>
      </trkpt>
      <trkpt lat="44.4894" lon="3.83284">
        <ele>877</ele>
        <time>2020-08-20T06:54:48Z</time>
      </trkpt>
      <trkpt lat="44.4892" lon="3.83156">
        <ele>877.5</ele>
        <time>2020-08-20T06:55:18Z</time>
      </trkpt>
      <trkpt lat="44.48885" lon="3.83028">
        <ele>878.4</ele>
        <time>2020-08-20T06:55:48Z</time>
      </trkpt>
      <trkpt lat="44.48881" lon="3.82882">
        <ele>879.4</ele>
        <time>2020-08-20T06:56:18Z</time>
      </trkpt>
      <trkpt lat="44.48876" lon="3.82754">
        <ele>881.4</ele>
        <time>2020-08-20T06:56:42Z</time>
      </trkpt>
      <trkpt lat="44.48838" lon="3.82615">
        <ele>881.7</ele>
        <time>2020-08-20T06:57:12Z</time>
      </trkpt>
      <trkpt lat="44.48754" lon="3.82527">
        <ele>882.5</ele>
        <time>2020-08-20T06:57:47Z</time>
      </trkpt>
      <trkpt lat="44.48728" lon="3.8239">
        <ele>884</ele>
        <time>2020-08-20T06:58:32Z</time>
      </trkpt>
      <trkpt lat="44.48709" lon="3.8226">
        <ele>885.2</ele>
        <time>2020-08-20T06:59:02Z</time>
      </trkpt>
      <trkpt lat="44.48619" lon="3.82203">
        <ele>886.6</ele>
        <time>2020-08-20T06:59:37Z</time>
      </trkpt>
      <trkpt lat="44.48552" lon="3.82112">
        <ele>888.1</ele>
        <time>2020-08-20T07:00:17Z</time>
      </trkpt>
      <trkpt lat="44.48566" lon="3.81973">
        <ele>889</ele>
        <time>2020-08-20T07:00:47Z</time>
      </trkpt>
      <trkpt lat="44.48533" lon="3.81837">
        <ele>889.9</ele>
        <time>2020-08-20T07:01:17Z</time>
      </trkpt>
      <trkpt lat="44.48444" lon="3.81779">
        <ele>890.7</ele>
        <time>2020-08-20T07:01:47Z</time>
      </trkpt>
      <trkpt lat="44.48354" lon="3.8178">
        <ele>891.7</ele>
        <time>2020-08-20T07:02:12Z</time>
      </trkpt>
      <trkpt lat="44.48318" lon="3.81659">
        <ele>893.1</ele>
        <time>2020-08-20T07:02:42Z</time>
      </trkpt>
      <trkpt lat="44.48265" lon="3.81542">
        <ele>894.4</ele>
        <time>2020-08-20T07:03:12Z</time>
      </trkpt>
      <trkpt lat="44.48215" lon="3.8141">
        <ele>895.7</ele>
        <time>2020-08-20T07:03:42Z</time>
      </trkpt>
      <trkpt lat="44.48263" lon="3.81281">
        <ele>897.8</ele>
        <time>2020-08-20T07:04:12Z</time>
      </trkpt>
      <trkpt lat="44.48306" lon="3.8115">
        <ele>898.6</ele>
        <time>2020-08-20T07:04:42Z</time>
      </trkpt>
      <trkpt lat="44.48256" lon="3.81019">
        <ele>900</ele>
        <time>2020-08-20T07:05:12Z</time>
      </trkpt>
      <trkpt lat="44.48286" lon="3.80875">
        <ele>901</ele>
        <time>2020-08-20T07:05:47Z</time>
      </trkpt>
      <trkpt lat="44.48319" lon="3.80759">
        <ele>901.7</ele>
        <time>2020-08-20T07:06:12Z</time>
      </trkpt>
      <trkpt lat="44.48364" lon="3.80633">
        <ele>902.7</ele>
        <time>2020-08-20T07:06:42Z</time>
      </trkpt>
      <trkpt lat="44.48438" lon="3.8054">
        <ele>903.6</ele>
        <time>2020-08-20T07:07:12Z</time>
      </trkpt>
      <trkpt lat="44.48521" lon="3.80477">
        <ele>904.5</ele>
        <time>2020-08-20T07:07:42Z</time>
      </trkpt>
      <trkpt lat="44.48614" lon="3.8042">
        <ele>905.1</ele>
        <time>2020-08-20T07:08:12Z</time>
      </trkpt>
      <trkpt lat="44.48691" lon="3.80323">
        <ele>906</ele>
        <time>2020-08-20T07:08:42Z</time>
      </trkpt>
      <trkpt lat="44.48722" lon="3.80201">
        <ele>907.1</ele>
        <time>2020-08-20T07:09:12Z</time>
      </trkpt>
      <trkpt lat="44.48805" lon="3.80135">
        <ele>909.5</ele>
        <time>2020-08-20T07:10:15Z</time>
      </trkpt>
      <trkpt lat="44.4886" lon="3.80028">
        <ele>911.6</ele>
        <time>2020-08-20T07:11:08Z</time>
      </trkpt>
      <trkpt lat="44.48838" lon="3.79894">
        <ele>913.9</ele>
        <time>2020-08-20T07:12:04Z</time>
      </trkpt>
      <trkpt lat="44.4881" lon="3.79765">
        <ele>915.6</ele>
        <time>2020-08-20T07:12:50Z</time>
      </trkpt>
      <trkpt lat="44.48865" lon="3.79667">
        <ele>928.2</ele>
        <time>2020-08-20T07:19:43Z</time>
      </trkpt>
      <trkpt lat="44.489" lon="3.79545">
        <ele>930.6</ele>
        <time>2020-08-20T07:20:28Z</time>
      </trkpt>
      <trkpt lat="44.48859" lon="3.79419">
        <ele>932.3</ele>
        <time>2020-08-20T07:21:18Z</time>
      </trkpt>
      <trkpt lat="44.48864" lon="3.79284">
        <ele>933.8</ele>
        <time>2020-08-20T07:22:09Z</time>
      </trkpt>
      <trkpt lat="44.48835" lon="3.79161">
        <ele>935.3</ele>
        <time>2020-08-20T07:22:56Z</time>
      </trkpt>
      <trkpt lat="44.48778" lon="3.79053">
        <ele>936.9</ele>
        <time>2020-08-20T07:23:41Z</time>
      </trkpt>
      <trkpt lat="44.48832" lon="3.78954">
        <ele>939.1</ele>
        <time>2020-08-20T07:24:36Z</time>
      </trkpt>
      <trkpt lat="44.48874" lon="3.78845">
        <ele>940.8</ele>
        <time>2020-08-20T07:25:24Z</time>
      </trkpt>
      <trkpt lat="44.48855" lon="3.78712">
        <ele>942.2</ele>
        <time>2020-08-20T07:26:10Z</time>
      </trkpt>
      <trkpt lat="44.48916" lon="3.78615">
        <ele>943.6</ele>
        <time>2020-08-20T07:26:55Z</time>
      </trkpt>
      <trkpt lat="44.48994" lon="3.78535">
        <ele>945.5</ele>
        <time>2020-08-20T07:27:40Z</time>
      </trkpt>
      <trkpt lat="44.48952" lon="3.78419">
        <ele>948.6</ele>
        <time>2020-08-20T07:28:41Z</time>
      </trkpt>
      <trkpt lat="44.48871" lon="3.78471">
        <ele>953.8</ele>
        <time>2020-08-20T07:29:22Z</time>
      </trkpt>
      <trkpt lat="44.48776" lon="3.78483">
        <ele>971</ele>
        <time>2020-08-20T07:30:19Z</time>
      </trkpt>
      <trkpt lat="44.48691" lon="3.78407">
        <ele>984.1</ele>
        <time>2020-08-20T07:31:14Z</time>
      </trkpt>
      <trkpt lat="44.48612" lon="3.78326">
        <ele>992.1</ele>
        <time>2020-08-20T07:32:04Z</time>
      </trkpt>
      <trkpt lat="44.48546" lon="3.7822">
        <ele>997.6</ele>
        <time>2020-08-20T07:32:56Z</time>
      </trkpt>
      <trkpt lat="44.48451" lon="3.7821">
        <ele>1002</ele>
        <time>2020-08-20T07:33:47Z</time>
      </trkpt>
      <trkpt lat="44.4838" lon="3.78294">
        <ele>1005.8</ele>
        <time>2020-08-20T07:34:33Z</time>
      </trkpt>
      <trkpt lat="44.48289" lon="3.78286">
        <ele>1009.9</ele>
        <time>2020-08-20T07:35:29Z</time>
      </trkpt>
      <trkpt lat="44.48208" lon="3.78204">
        <ele>1013.2</ele>
        <time>2020-08-20T07:36:26Z</time>
      </trkpt>
      <trkpt lat="44.48114" lon="3.78164">
        <ele>1016.1</ele>
        <time>2020-08-20T07:37:19Z</time>
      </trkpt>
      <trkpt lat="44.48105" lon="3.78028">
        <ele>1018.7</ele>
        <time>2020-08-20T07:38:11Z</time>
      </trkpt>
      <trkpt lat="44.48139" lon="3.77901">
        <ele>1021.4</ele>
        <time>2020-08-20T07:39:05Z</time>
      </trkpt>
      <trkpt lat="44.48055" lon="3.77838">
        <ele>1024.5</ele>
        <time>2020-08-20T07:40:03Z</time>
      </trkpt>
      <trkpt lat="44.47985" lon="3.77914">
        <ele>1027.2</ele>
        <time>2020-08-20T07:40:49Z</time>
      </trkpt>
      <trkpt lat="44.47942" lon="3.78024">
        <ele>1030.6</ele>
        <time>2020-08-20T07:41:38Z</time>
      </trkpt>
      <trkpt lat="44.47844" lon="3.78021">
        <ele>1035.1</ele>
        <time>2020-08-20T07:42:39Z</time>
      </trkpt>
      <trkpt lat="44.47752" lon="3.77974">
        <ele>1038.7</ele>
        <time>2020-08-20T07:43:30Z</time>
      </trkpt>
      <trkpt lat="44.47737" lon="3.77842">
        <ele>1042.7</ele>
        <time>2020-08-20T07:44:28Z</time>
      </trkpt>
      <trkpt lat="44.47804" lon="3.77748">
        <ele>1046.3</ele>
        <time>2020-08-20T07:45:22Z</time>
      </trkpt>
      <trkpt lat="44.47844" lon="3.77635">
        <ele>1049</ele>
        <time>2020-08-20T07:46:10Z</time>
      </trkpt>
      <trkpt lat="44.47844" lon="3.77504">
        <ele>1051.3</ele>
        <time>2020-08-20T07:46:55Z</time>
      </trkpt>
      <trkpt lat="44.47849" lon="3.77369">
        <ele>1054.9</ele>
        <time>2020-08-20T07:47:40Z</time>
      </trkpt>
      <trkpt lat="44.47835" lon="3.7724">
        <ele>1059.3</ele>
        <time>2020-08-20T07:48:25Z</time>
      </trkpt>
      <trkpt lat="44.47744" lon="3.77186">
        <ele>1063.7</ele>
        <time>2020-08-20T07:49:09Z</time>
      </trkpt>
      <trkpt lat="44.47739" lon="3.7705">
        <ele>1069.5</ele>
        <time>2020-08-20T07:50:12Z</time>
      </trkpt>
      <trkpt lat="44.47711" lon="3.76914">
        <ele>1073.7</ele>
        <time>2020-08-20T07:51:08Z</time>
      </trkpt>
      <trkpt lat="44.47718" lon="3.76778">
        <ele>1077.2</ele>
        <time>2020-08-20T07:51:53Z</time>
      </trkpt>
      <trkpt lat="44.47653" lon="3.76676">
        <ele>1081.7</ele>
        <time>2020-08-20T07:52:51Z</time>
      </trkpt>
      <trkpt lat="44.47558" lon="3.76702">
        <ele>1085.6</ele>
        <time>2020-08-20T07:53:38Z</time>
      </trkpt>
      <trkpt lat="44.47501" lon="3.76591">
        <ele>1094.3</ele>
        <time>2020-08-20T07:54:33Z</time>
      </trkpt>
      <trkpt lat="44.47516" lon="3.76465">
        <ele>1101.8</ele>
        <time>2020-08-20T07:55:18Z</time>
      </trkpt>
      <trkpt lat="44.47549" lon="3.76348">
        <ele>1106.7</ele>
        <time>2020-08-20T07:56:03Z</time>
      </trkpt>
      <trkpt lat="44.47611" lon="3.76245">
        <ele>1109.9</ele>
        <time>2020-08-20T07:56:48Z</time>
      </trkpt>
      <trkpt lat="44.47691" lon="3.76176">
        <ele>1112.4</ele>
        <time>2020-08-20T07:57:33Z</time>
      </trkpt>
      <trkpt lat="44.47775" lon="3.76116">
        <ele>1115.1</ele>
        <time>2020-08-20T07:58:18Z</time>
      </trkpt>
      <trkpt lat="44.47857" lon="3.76049">
        <ele>1117.9</ele>
        <time>2020-08-20T07:59:03Z</time>
      </trkpt>
      <trkpt lat="44.47937" lon="3.75994">
        <ele>1120.6</ele>
        <time>2020-08-20T07:59:43Z</time>
      </trkpt>
      <trkpt lat="44.48028" lon="3.75963">
        <ele>1124.6</ele>
        <time>2020-08-20T08:00:30Z</time>
      </trkpt>
      <trkpt lat="44.48111" lon="3.75912">
        <ele>1135.1</ele>
        <time>2020-08-20T08:02:07Z</time>
      </trkpt>
      <trkpt lat="44.482" lon="3.75842">
        <ele>1136.5</ele>
        <time>2020-08-20T08:02:22Z</time>
      </trkpt>
      <trkpt lat="44.48295" lon="3.75732">
        <ele>1136.4</ele>
        <time>2020-08-20T08:02:37Z</time>
      </trkpt>
      <trkpt lat="44.4841" lon="3.75643">
        <ele>1135.8</ele>
        <time>2020-08-20T08:02:52Z</time>
      </trkpt>
      <trkpt lat="44.4849" lon="3.75587">
        <ele>1135.3</ele>
        <time>2020-08-20T08:03:02Z</time>
      </trkpt>
      <trkpt lat="44.48619" lon="3.75552">
        <ele>1134.6</ele>
        <time>2020-08-20T08:03:17Z</time>
      </trkpt>
      <trkpt lat="44.48745" lon="3.75526">
        <ele>1133.5</ele>
        <time>2020-08-20T08:03:32Z</time>
      </trkpt>
      <trkpt lat="44.48866" lon="3.75527">
        <ele>1132.2</ele>
        <time>2020-08-20T08:03:47Z</time>
      </trkpt>
      <trkpt lat="44.48982" lon="3.75502">
        <ele>1130.9</ele>
        <time>2020-08-20T08:04:02Z</time>
      </trkpt>
      <trkpt lat="44.49077" lon="3.75414">
        <ele>1129.4</ele>
        <time>2020-08-20T08:04:17Z</time>
      </trkpt>
      <trkpt lat="44.49139" lon="3.75319">
        <ele>1128.6</ele>
        <time>2020-08-20T08:04:32Z</time>
      </trkpt>
      <trkpt lat="44.49176" lon="3.75202">
        <ele>1128.4</ele>
        <time>2020-08-20T08:04:47Z</time>
      </trkpt>
      <trkpt lat="44.49214" lon="3.75072">
        <ele>1127</ele>
        <time>2020-08-20T08:05:02Z</time>
      </trkpt>
      <trkpt lat="44.49222" lon="3.7493">
        <ele>1126.2</ele>
        <time>2020-08-20T08:05:17Z</time>
      </trkpt>
      <trkpt lat="44.49198" lon="3.74785">
        <ele>1125.5</ele>
        <time>2020-08-20T08:05:32Z</time>
      </trkpt>
      <trkpt lat="44.4916" lon="3.74655">
        <ele>1124.5</ele>
        <time>2020-08-20T08:05:47Z</time>
      </trkpt>
      <trkpt lat="44.49089" lon="3.74547">
        <ele>1123</ele>
        <time>2020-08-20T08:06:02Z</time>
      </trkpt>
      <trkpt lat="44.49115" lon="3.74409">
        <ele>1121.6</ele>
        <time>2020-08-20T08:06:17Z</time>
      </trkpt>
      <trkpt lat="44.49135" lon="3.74269">
        <ele>1119.8</ele>
        <time>2020-08-20T08:06:32Z</time>
      </trkpt>
      <trkpt lat="44.49123" lon="3.74126">
        <ele>1118.3</ele>
        <time>2020-08-20T08:06:47Z</time>
      </trkpt>
      <trkpt lat="44.49053" lon="3.74021">
        <ele>1117</ele>
        <time>2020-08-20T08:07:07Z</time>
      </trkpt>
      <trkpt lat="44.48977" lon="3.73933">
        <ele>1113.5</ele>
        <time>2020-08-20T08:20:58Z</time>
      </trkpt>
      <trkpt lat="44.48904" lon="3.73834">
        <ele>1112.8</ele>
        <time>2020-08-20T08:21:23Z</time>
      </trkpt>
      <trkpt lat="44.48867" lon="3.73698">
        <ele>1112.5</ele>
        <time>2020-08-20T08:21:53Z</time>
      </trkpt>
      <trkpt lat="44.48803" lon="3.73586">
        <ele>1112.2</ele>
        <time>2020-08-20T08:22:13Z</time>
      </trkpt>
      <trkpt lat="44.48715" lon="3.73498">
        <ele>1111.9</ele>
        <time>2020-08-20T08:22:33Z</time>
      </trkpt>
      <trkpt lat="44.48626" lon="3.73444">
        <ele>1111.6</ele>
        <time>2020-08-20T08:22:53Z</time>
      </trkpt>
      <trkpt lat="44.48564" lon="3.73329">
        <ele>1111.7</ele>
        <time>2020-08-20T08:23:28Z</time>
      </trkpt>
      <trkpt lat="44.48484" lon="3.73249">
        <ele>1111.8</ele>
        <time>2020-08-20T08:24:27Z</time>
      </trkpt>
      <trkpt lat="44.48391" lon="3.73205">
        <ele>1112.3</ele>
        <time>2020-08-20T08:25:12Z</time>
      </trkpt>
      <trkpt lat="44.48301" lon="3.7316">
        <ele>1113.1</ele>
        <time>2020-08-20T08:25:52Z</time>
      </trkpt>
      <trkpt lat="44.48217" lon="3.7308">
        <ele>1114.1</ele>
        <time>2020-08-20T08:26:32Z</time>
      </trkpt>
      <trkpt lat="44.48126" lon="3.73012">
        <ele>1115.2</ele>
        <time>2020-08-20T08:27:12Z</time>
      </trkpt>
      <trkpt lat="44.48037" lon="3.72976">
        <ele>1116.1</ele>
        <time>2020-08-20T08:27:42Z</time>
      </trkpt>
      <trkpt lat="44.47936" lon="3.72931">
        <ele>1117.1</ele>
        <time>2020-08-20T08:28:12Z</time>
      </trkpt>
      <trkpt lat="44.47844" lon="3.72868">
        <ele>1118.3</ele>
        <time>2020-08-20T08:28:42Z</time>
      </trkpt>
      <trkpt lat="44.47761" lon="3.72808">
        <ele>1120.3</ele>
        <time>2020-08-20T08:29:07Z</time>
      </trkpt>
      <trkpt lat="44.47655" lon="3.72745">
        <ele>1121.7</ele>
        <time>2020-08-20T08:29:32Z</time>
      </trkpt>
      <trkpt lat="44.47546" lon="3.72755">
        <ele>1122.7</ele>
        <time>2020-08-20T08:29:52Z</time>
      </trkpt>
      <trkpt lat="44.47453" lon="3.72756">
        <ele>1123.7</ele>
        <time>2020-08-20T08:30:12Z</time>
      </trkpt>
      <trkpt lat="44.47357" lon="3.72709">
        <ele>1124.5</ele>
        <time>2020-08-20T08:30:37Z</time>
      </trkpt>
      <trkpt lat="44.47265" lon="3.72657">
        <ele>1125.1</ele>
        <time>2020-08-20T08:31:12Z</time>
      </trkpt>
      <trkpt lat="44.4718" lon="3.72716">
        <ele>1126.5</ele>
        <time>2020-08-20T08:31:52Z</time>
      </trkpt>
      <trkpt lat="44.47091" lon="3.72732">
        <ele>1129</ele>
        <time>2020-08-20T08:32:45Z</time>
      </trkpt>
      <trkpt lat="44.46994" lon="3.72702">
        <ele>1132.1</ele>
        <time>2020-08-20T08:33:41Z</time>
      </trkpt>
      <trkpt lat="44.46896" lon="3.72694">
        <ele>1136.8</ele>
        <time>2020-08-20T08:34:41Z</time>
      </trkpt>
      <trkpt lat="44.46799" lon="3.72702">
        <ele>1145.5</ele>
        <time>2020-08-20T08:35:40Z</time>
      </trkpt>
      <trkpt lat="44.467" lon="3.72711">
        <ele>1157.1</ele>
        <time>2020-08-20T08:36:37Z</time>
      </trkpt>
      <trkpt lat="44.46611" lon="3.72653">
        <ele>1166.7</ele>
        <time>2020-08-20T08:37:34Z</time>
      </trkpt>
      <trkpt lat="44.46523" lon="3.7261">
        <ele>1173.7</ele>
        <time>2020-08-20T08:38:27Z</time>
      </trkpt>
      <trkpt lat="44.46431" lon="3.72585">
        <ele>1182.1</ele>
        <time>2020-08-20T08:39:40Z</time>
      </trkpt>
      <trkpt lat="44.46343" lon="3.7254">
        <ele>1189.2</ele>
        <time>2020-08-20T08:40:42Z</time>
      </trkpt>
      <trkpt lat="44.46274" lon="3.72632">
        <ele>1196.7</ele>
        <time>2020-08-20T08:41:46Z</time>
      </trkpt>
      <trkpt lat="44.46205" lon="3.7271">
        <ele>1204.6</ele>
        <time>2020-08-20T08:42:36Z</time>
      </trkpt>
      <trkpt lat="44.46112" lon="3.72716">
        <ele>1215.9</ele>
        <time>2020-08-20T08:43:33Z</time>
      </trkpt>
      <trkpt lat="44.46016" lon="3.72741">
        <ele>1224.7</ele>
        <time>2020-08-20T08:44:34Z</time>
      </trkpt>
      <trkpt lat="44.45931" lon="3.72785">
        <ele>1231.3</ele>
        <time>2020-08-20T08:45:32Z</time>
      </trkpt>
      <trkpt lat="44.45889" lon="3.72901">
        <ele>1236.3</ele>
        <time>2020-08-20T08:46:31Z</time>
      </trkpt>
      <trkpt lat="44.45822" lon="3.72995">
        <ele>1240.7</ele>
        <time>2020-08-20T08:47:36Z</time>
      </trkpt>
      <trkpt lat="44.45791" lon="3.73124">
        <ele>1244.3</ele>
        <time>2020-08-20T08:48:40Z</time>
      </trkpt>
      <trkpt lat="44.45774" lon="3.73258">
        <ele>1247.6</ele>
        <time>2020-08-20T08:49:45Z</time>
      </trkpt>
      <trkpt lat="44.45757" lon="3.73391">
        <ele>1251.5</ele>
        <time>2020-08-20T08:50:53Z</time>
      </trkpt>
      <trkpt lat="44.45823" lon="3.73488">
        <ele>1255.2</ele>
        <time>2020-08-20T08:52:00Z</time>
      </trkpt>
      <trkpt lat="44.45734" lon="3.73506">
        <ele>1262.9</ele>
        <time>2020-08-20T08:53:12Z</time>
      </trkpt>
      <trkpt lat="44.45685" lon="3.7362">
        <ele>1273.1</ele>
        <time>2020-08-20T08:54:20Z</time>
      </trkpt>
      <trkpt lat="44.45695" lon="3.73752">
        <ele>1283.5</ele>
        <time>2020-08-20T08:55:22Z</time>
      </trkpt>
      <trkpt lat="44.45686" lon="3.73882">
        <ele>1294.1</ele>
        <time>2020-08-20T08:56:31Z</time>
      </trkpt>
      <trkpt lat="44.45693" lon="3.74019">
        <ele>1301.2</ele>
        <time>2020-08-20T08:57:40Z</time>
      </trkpt>
      <trkpt lat="44.4568" lon="3.74144">
        <ele>1305.7</ele>
        <time>2020-08-20T08:58:34Z</time>
      </trkpt>
      <trkpt lat="44.45596" lon="3.7407">
        <ele>1314.6</ele>
        <time>2020-08-20T09:00:20Z</time>
      </trkpt>
      <trkpt lat="44.45554" lon="3.73948">
        <ele>1324.4</ele>
        <time>2020-08-20T09:01:16Z</time>
      </trkpt>
      <trkpt lat="44.45493" lon="3.73842">
        <ele>1334.1</ele>
        <time>2020-08-20T09:02:16Z</time>
      </trkpt>
      <trkpt lat="44.45406" lon="3.73897">
        <ele>1342.7</ele>
        <time>2020-08-20T09:03:24Z</time>
      </trkpt>
      <trkpt lat="44.45316" lon="3.73937">
        <ele>1350.6</ele>
        <time>2020-08-20T09:04:31Z</time>
      </trkpt>
      <trkpt lat="44.45239" lon="3.74011">
        <ele>1359.4</ele>
        <time>2020-08-20T09:05:33Z</time>
      </trkpt>
      <trkpt lat="44.45162" lon="3.74094">
        <ele>1368.8</ele>
        <time>2020-08-20T09:06:35Z</time>
      </trkpt>
      <trkpt lat="44.45096" lon="3.7419">
        <ele>1378.5</ele>
        <time>2020-08-20T09:07:42Z</time>
      </trkpt>
      <trkpt lat="44.45108" lon="3.74321">
        <ele>1386.8</ele>
        <time>2020-08-20T09:08:47Z</time>
      </trkpt>
      <trkpt lat="44.45027" lon="3.74375">
        <ele>1400.1</ele>
        <time>2020-08-20T09:11:09Z</time>
      </trkpt>
      <trkpt lat="44.45083" lon="3.74487">
        <ele>1406</ele>
        <time>2020-08-20T09:12:13Z</time>
      </trkpt>
      <trkpt lat="44.45122" lon="3.74614">
        <ele>1412.2</ele>
        <time>2020-08-20T09:13:22Z</time>
      </trkpt>
      <trkpt lat="44.45172" lon="3.74724">
        <ele>1418</ele>
        <time>2020-08-20T09:14:24Z</time>
      </trkpt>
      <trkpt lat="44.45083" lon="3.74764">
        <ele>1425.7</ele>
        <time>2020-08-20T09:15:39Z</time>
      </trkpt>
      <trkpt lat="44.4499" lon="3.74735">
        <ele>1431.7</ele>
        <time>2020-08-20T09:16:40Z</time>
      </trkpt>
      <trkpt lat="44.44895" lon="3.74707">
        <ele>1439.2</ele>
        <time>2020-08-20T09:17:51Z</time>
      </trkpt>
      <trkpt lat="44.44798" lon="3.74691">
        <ele>1448.3</ele>
        <time>2020-08-20T09:19:02Z</time>
      </trkpt>
      <trkpt lat="44.44703" lon="3.74706">
        <ele>1459</ele>
        <time>2020-08-20T09:20:15Z</time>
      </trkpt>
      <trkpt lat="44.44619" lon="3.74767">
        <ele>1474.1</ele>
        <time>2020-08-20T09:21:36Z</time>
      </trkpt>
      <trkpt lat="44.44534" lon="3.74823">
        <ele>1490.7</ele>
        <time>2020-08-20T09:23:21Z</time>
      </trkpt>
      <trkpt lat="44.44449" lon="3.74878">
        <ele>1500.5</ele>
        <time>2020-08-20T09:25:09Z</time>
      </trkpt>
      <trkpt lat="44.44366" lon="3.74942">
        <ele>1507</ele>
        <time>2020-08-20T09:26:21Z</time>
      </trkpt>
      <trkpt lat="44.44292" lon="3.75027">
        <ele>1512.5</ele>
        <time>2020-08-20T09:27:27Z</time>
      </trkpt>
      <trkpt lat="44.44223" lon="3.75111">
        <ele>1516.9</ele>
        <time>2020-08-20T09:28:21Z</time>
      </trkpt>
      <trkpt lat="44.44141" lon="3.75163">
        <ele>1520</ele>
        <time>2020-08-20T09:29:02Z</time>
      </trkpt>
      <trkpt lat="44.44049" lon="3.75186">
        <ele>1523</ele>
        <time>2020-08-20T09:29:47Z</time>
      </trkpt>
      <trkpt lat="44.43956" lon="3.75179">
        <ele>1525.3</ele>
        <time>2020-08-20T09:30:27Z</time>
      </trkpt>
      <trkpt lat="44.43861" lon="3.75186">
        <ele>1527.1</ele>
        <time>2020-08-20T09:31:07Z</time>
      </trkpt>
      <trkpt lat="44.43779" lon="3.75235">
        <ele>1529.2</ele>
        <time>2020-08-20T09:31:53Z</time>
      </trkpt>
      <trkpt lat="44.43701" lon="3.75298">
        <ele>1531.5</ele>
        <time>2020-08-20T09:32:33Z</time>
      </trkpt>
      <trkpt lat="44.43607" lon="3.75317">
        <ele>1533.7</ele>
        <time>2020-08-20T09:33:18Z</time>
      </trkpt>
      <trkpt lat="44.43524" lon="3.75389">
        <ele>1535.6</ele>
        <time>2020-08-20T09:34:03Z</time>
      </trkpt>
      <trkpt lat="44.43458" lon="3.75485">
        <ele>1537.5</ele>
        <time>2020-08-20T09:34:43Z</time>
      </trkpt>
      <trkpt lat="44.43384" lon="3.75564">
        <ele>1539.6</ele>
        <time>2020-08-20T09:35:23Z</time>
      </trkpt>
      <trkpt lat="44.43353" lon="3.75695">
        <ele>1541.9</ele>
        <time>2020-08-20T09:36:08Z</time>
      </trkpt>
      <trkpt lat="44.43355" lon="3.75835">
        <ele>1543.2</ele>
        <time>2020-08-20T09:36:43Z</time>
      </trkpt>
      <trkpt lat="44.43312" lon="3.75961">
        <ele>1544.4</ele>
        <time>2020-08-20T09:37:23Z</time>
      </trkpt>
      <trkpt lat="44.43269" lon="3.76077">
        <ele>1545.5</ele>
        <time>2020-08-20T09:37:58Z</time>
      </trkpt>
      <trkpt lat="44.43252" lon="3.76208">
        <ele>1546.6</ele>
        <time>2020-08-20T09:38:33Z</time>
      </trkpt>
      <trkpt lat="44.43242" lon="3.76334">
        <ele>1547.4</ele>
        <time>2020-08-20T09:39:03Z</time>
      </trkpt>
      <trkpt lat="44.43172" lon="3.76423">
        <ele>1548.6</ele>
        <time>2020-08-20T09:39:38Z</time>
      </trkpt>
      <trkpt lat="44.43099" lon="3.76497">
        <ele>1550.1</ele>
        <time>2020-08-20T09:40:18Z</time>
      </trkpt>
      <trkpt lat="44.43006" lon="3.76509">
        <ele>1551.3</ele>
        <time>2020-08-20T09:41:05Z</time>
      </trkpt>
      <trkpt lat="44.42915" lon="3.76472">
        <ele>1552.4</ele>
        <time>2020-08-20T09:41:51Z</time>
      </trkpt>
      <trkpt lat="44.42822" lon="3.76459">
        <ele>1553.2</ele>
        <time>2020-08-20T09:42:31Z</time>
      </trkpt>
      <trkpt lat="44.42731" lon="3.76471">
        <ele>1553.8</ele>
        <time>2020-08-20T09:43:01Z</time>
      </trkpt>
      <trkpt lat="44.42649" lon="3.76531">
        <ele>1555.1</ele>
        <time>2020-08-20T09:43:48Z</time>
      </trkpt>
      <trkpt lat="44.42553" lon="3.76547">
        <ele>1557</ele>
        <time>2020-08-20T09:44:49Z</time>
      </trkpt>
      <trkpt lat="44.42482" lon="3.76632">
        <ele>1558.8</ele>
        <time>2020-08-20T09:45:48Z</time>
      </trkpt>
      <trkpt lat="44.42458" lon="3.76769">
        <ele>1560.2</ele>
        <time>2020-08-20T09:46:23Z</time>
      </trkpt>
      <trkpt lat="44.42402" lon="3.76871">
        <ele>1562.6</ele>
        <time>2020-08-20T09:47:03Z</time>
      </trkpt>
      <trkpt lat="44.42332" lon="3.76954">
        <ele>1580</ele>
        <time>2020-08-20T09:58:48Z</time>
      </trkpt>
      <trkpt lat="44.42248" lon="3.7701">
        <ele>1581.6</ele>
        <time>2020-08-20T09:59:18Z</time>
      </trkpt>
      <trkpt lat="44.42138" lon="3.77019">
        <ele>1582.2</ele>
        <time>2020-08-20T09:59:43Z</time>
      </trkpt>
      <trkpt lat="44.42027" lon="3.77029">
        <ele>1582.1</ele>
        <time>2020-08-20T10:00:03Z</time>
      </trkpt>
      <trkpt lat="44.41914" lon="3.77064">
        <ele>1582</ele>
        <time>2020-08-20T10:00:23Z</time>
      </trkpt>
      <trkpt lat="44.41826" lon="3.77112">
        <ele>1581.7</ele>
        <time>2020-08-20T10:00:38Z</time>
      </trkpt>
      <trkpt lat="44.41737" lon="3.77186">
        <ele>1579.9</ele>
        <time>2020-08-20T10:00:53Z</time>
      </trkpt>
      <trkpt lat="44.41631" lon="3.77239">
        <ele>1572.9</ele>
        <time>2020-08-20T10:01:08Z</time>
      </trkpt>
      <trkpt lat="44.41535" lon="3.77306">
        <ele>1568.6</ele>
        <time>2020-08-20T10:01:23Z</time>
      </trkpt>
      <trkpt lat="44.41442" lon="3.773">
        <ele>1563.8</ele>
        <time>2020-08-20T10:01:38Z</time>
      </trkpt>
      <trkpt lat="44.41347" lon="3.77172">
        <ele>1559.3</ele>
        <time>2020-08-20T10:01:53Z</time>
      </trkpt>
      <trkpt lat="44.41262" lon="3.77119">
        <ele>1554.7</ele>
        <time>2020-08-20T10:02:03Z</time>
      </trkpt>
      <trkpt lat="44.4117" lon="3.77132">
        <ele>1544.6</ele>
        <time>2020-08-20T10:02:13Z</time>
      </trkpt>
      <trkpt lat="44.41078" lon="3.77131">
        <ele>1535.5</ele>
        <time>2020-08-20T10:02:23Z</time>
      </trkpt>
      <trkpt lat="44.40957" lon="3.7707">
        <ele>1541.8</ele>
        <time>2020-08-20T10:02:38Z</time>
      </trkpt>
      <trkpt lat="44.40882" lon="3.76923">
        <ele>1534.1</ele>
        <time>2020-08-20T10:02:53Z</time>
      </trkpt>
      <trkpt lat="44.40858" lon="3.76796">
        <ele>1529.3</ele>
        <time>2020-08-20T10:03:03Z</time>
      </trkpt>
      <trkpt lat="44.40806" lon="3.76682">
        <ele>1526.2</ele>
        <time>2020-08-20T10:03:13Z</time>
      </trkpt>
      <trkpt lat="44.40719" lon="3.76611">
        <ele>1523</ele>
        <time>2020-08-20T10:03:23Z</time>
      </trkpt>
      <trkpt lat="44.40626" lon="3.7659">
        <ele>1519.5</ele>
        <time>2020-08-20T10:03:33Z</time>
      </trkpt>
      <trkpt lat="44.40621" lon="3.76456">
        <ele>1514.5</ele>
        <time>2020-08-20T10:03:48Z</time>
      </trkpt>
      <trkpt lat="44.40589" lon="3.76323">
        <ele>1508.2</ele>
        <time>2020-08-20T10:04:03Z</time>
      </trkpt>
      <trkpt lat="44.40494" lon="3.76304">
        <ele>1504</ele>
        <time>2020-08-20T10:04:13Z</time>
      </trkpt>
      <trkpt lat="44.40393" lon="3.76297">
        <ele>1499</ele>
        <time>2020-08-20T10:04:23Z</time>
      </trkpt>
      <trkpt lat="44.40321" lon="3.76194">
        <ele>1494</ele>
        <time>2020-08-20T10:04:33Z</time>
      </trkpt>
      <trkpt lat="44.40383" lon="3.76028">
        <ele>1483.1</ele>
        <time>2020-08-20T10:04:48Z</time>
      </trkpt>
      <trkpt lat="44.40477" lon="3.75922">
        <ele>1468.3</ele>
        <time>2020-08-20T10:05:03Z</time>
      </trkpt>
      <trkpt lat="44.40529" lon="3.75783">
        <ele>1460</ele>
        <time>2020-08-20T10:05:13Z</time>
      </trkpt>
      <trkpt lat="44.4062" lon="3.75702">
        <ele>1452.5</ele>
        <time>2020-08-20T10:05:23Z</time>
      </trkpt>
      <trkpt lat="44.40729" lon="3.75648">
        <ele>1437.3</ele>
        <time>2020-08-20T10:05:33Z</time>
      </trkpt>
      <trkpt lat="44.40795" lon="3.75539">
        <ele>1422.7</ele>
        <time>2020-08-20T10:05:43Z</time>
      </trkpt>
      <trkpt lat="44.40821" lon="3.75392">
        <ele>1415</ele>
        <time>2020-08-20T10:05:53Z</time>
      </trkpt>
      <trkpt lat="44.40857" lon="3.75239">
        <ele>1405.4</ele>
        <time>2020-08-20T10:06:03Z</time>
      </trkpt>
      <trkpt lat="44.40878" lon="3.7509">
        <ele>1399</ele>
        <time>2020-08-20T10:06:13Z</time>
      </trkpt>
      <trkpt lat="44.40764" lon="3.75063">
        <ele>1387.1</ele>
        <time>2020-08-20T10:06:28Z</time>
      </trkpt>
      <trkpt lat="44.40674" lon="3.75007">
        <ele>1381.3</ele>
        <time>2020-08-20T10:06:38Z</time>
      </trkpt>
      <trkpt lat="44.40618" lon="3.74887">
        <ele>1378.2</ele>
        <time>2020-08-20T10:06:48Z</time>
      </trkpt>
      <trkpt lat="44.40574" lon="3.74759">
        <ele>1370.2</ele>
        <time>2020-08-20T10:06:58Z</time>
      </trkpt>
      <trkpt lat="44.40586" lon="3.74626">
        <ele>1361.3</ele>
        <time>2020-08-20T10:07:08Z</time>
      </trkpt>
      <trkpt lat="44.40507" lon="3.74543">
        <ele>1345.1</ele>
        <time>2020-08-20T10:07:28Z</time>
      </trkpt>
      <trkpt lat="44.40436" lon="3.74461">
        <ele>1339</ele>
        <time>2020-08-20T10:07:38Z</time>
      </trkpt>
      <trkpt lat="44.40394" lon="3.74625">
        <ele>1318</ele>
        <time>2020-08-20T10:08:03Z</time>
      </trkpt>
      <trkpt lat="44.40339" lon="3.74783">
        <ele>1311.1</ele>
        <time>2020-08-20T10:08:18Z</time>
      </trkpt>
      <trkpt lat="44.40254" lon="3.74821">
        <ele>1301</ele>
        <time>2020-08-20T10:08:28Z</time>
      </trkpt>
      <trkpt lat="44.40174" lon="3.74874">
        <ele>1295.3</ele>
        <time>2020-08-20T10:08:38Z</time>
      </trkpt>
      <trkpt lat="44.40097" lon="3.74935">
        <ele>1289</ele>
        <time>2020-08-20T10:08:48Z</time>
      </trkpt>
      <trkpt lat="44.40007" lon="3.74945">
        <ele>1281.6</ele>
        <time>2020-08-20T10:08:58Z</time>
      </trkpt>
      <trkpt lat="44.39891" lon="3.75004">
        <ele>1275</ele>
        <time>2020-08-20T10:09:13Z</time>
      </trkpt>
      <trkpt lat="44.39838" lon="3.75145">
        <ele>1270.2</ele>
        <time>2020-08-20T10:09:28Z</time>
      </trkpt>
      <trkpt lat="44.39712" lon="3.75206">
        <ele>1264.8</ele>
        <time>2020-08-20T10:09:43Z</time>
      </trkpt>
      <trkpt lat="44.39593" lon="3.75121">
        <ele>1261</ele>
        <time>2020-08-20T10:09:58Z</time>
      </trkpt>
      <trkpt lat="44.39497" lon="3.7515">
        <ele>1259.4</ele>
        <time>2020-08-20T10:10:08Z</time>
      </trkpt>
      <trkpt lat="44.39405" lon="3.75192">
        <ele>1256.6</ele>
        <time>2020-08-20T10:10:18Z</time>
      </trkpt>
      <trkpt lat="44.39275" lon="3.75214">
        <ele>1243.8</ele>
        <time>2020-08-20T10:10:33Z</time>
      </trkpt>
      <trkpt lat="44.39205" lon="3.75124">
        <ele>1238.7</ele>
        <time>2020-08-20T10:10:43Z</time>
      </trkpt>
      <trkpt lat="44.39123" lon="3.75193">
        <ele>1234.9</ele>
        <time>2020-08-20T10:10:53Z</time>
      </trkpt>
      <trkpt lat="44.39043" lon="3.75287">
        <ele>1221.6</ele>
        <time>2020-08-20T10:11:03Z</time>
      </trkpt>
      <trkpt lat="44.38939" lon="3.7534">
        <ele>1214.6</ele>
        <time>2020-08-20T10:11:13Z</time>
      </trkpt>
      <trkpt lat="44.38804" lon="3.75331">
        <ele>1205.1</ele>
        <time>2020-08-20T10:11:28Z</time>
      </trkpt>
      <trkpt lat="44.38708" lon="3.75295">
        <ele>1199</ele>
        <time>2020-08-20T10:11:38Z</time>
      </trkpt>
      <trkpt lat="44.38597" lon="3.75315">
        <ele>1191.6</ele>
        <time>2020-08-20T10:11:48Z</time>
      </trkpt>
      <trkpt lat="44.38485" lon="3.75333">
        <ele>1178.5</ele>
        <time>2020-08-20T10:11:58Z</time>
      </trkpt>
      <trkpt lat="44.3839" lon="3.75372">
        <ele>1165.6</ele>
        <time>2020-08-20T10:12:08Z</time>
      </trkpt>
      <trkpt lat="44.38337" lon="3.75492">
        <ele>1154.7</ele>
        <time>2020-08-20T10:12:18Z</time>
      </trkpt>
      <trkpt lat="44.38281" lon="3.75357">
        <ele>1141</ele>
        <time>2020-08-20T10:12:48Z</time>
      </trkpt>
      <trkpt lat="44.38175" lon="3.75272">
        <ele>1122.8</ele>
        <time>2020-08-20T10:13:03Z</time>
      </trkpt>
      <trkpt lat="44.38081" lon="3.75285">
        <ele>1118.6</ele>
        <time>2020-08-20T10:13:13Z</time>
      </trkpt>
      <trkpt lat="44.3797" lon="3.75249">
        <ele>1114.6</ele>
        <time>2020-08-20T10:13:23Z</time>
      </trkpt>
      <trkpt lat="44.37859" lon="3.75225">
        <ele>1122.5</ele>
        <time>2020-08-20T10:13:33Z</time>
      </trkpt>
      <trkpt lat="44.37753" lon="3.75195">
        <ele>1124.2</ele>
        <time>2020-08-20T10:13:43Z</time>
      </trkpt>
      <trkpt lat="44.37641" lon="3.75191">
        <ele>1108.7</ele>
        <time>2020-08-20T10:13:53Z</time>
      </trkpt>
      <trkpt lat="44.37528" lon="3.75155">
        <ele>1093.8</ele>
        <time>2020-08-20T10:14:03Z</time>
      </trkpt>
      <trkpt lat="44.37421" lon="3.75133">
        <ele>1087.1</ele>
        <time>2020-08-20T10:14:13Z</time>
      </trkpt>
      <trkpt lat="44.37306" lon="3.7511">
        <ele>1078.7</ele>
        <time>2020-08-20T10:14:23Z</time>
      </trkpt>
      <trkpt lat="44.37195" lon="3.75083">
        <ele>1063.3</ele>
        <time>2020-08-20T10:14:33Z</time>
      </trkpt>
      <trkpt lat="44.37101" lon="3.74986">
        <ele>1053.7</ele>
        <time>2020-08-20T10:14:43Z</time>
      </trkpt>
      <trkpt lat="44.37015" lon="3.749">
        <ele>1044.3</ele>
        <time>2020-08-20T10:14:53Z</time>
      </trkpt>
      <trkpt lat="44.36903" lon="3.74865">
        <ele>1036.5</ele>
        <time>2020-08-20T10:15:03Z</time>
      </trkpt>
      <trkpt lat="44.36786" lon="3.74847">
        <ele>1029.2</ele>
        <time>2020-08-20T10:15:13Z</time>
      </trkpt>
      <trkpt lat="44.36712" lon="3.74725">
        <ele>1024.1</ele>
        <time>2020-08-20T10:15:23Z</time>
      </trkpt>
      <trkpt lat="44.36604" lon="3.74691">
        <ele>1014</ele>
        <time>2020-08-20T10:15:33Z</time>
      </trkpt>
      <trkpt lat="44.36503" lon="3.74653">
        <ele>1002.4</ele>
        <time>2020-08-20T10:15:43Z</time>
      </trkpt>
      <trkpt lat="44.36413" lon="3.74656">
        <ele>996.1</ele>
        <time>2020-08-20T10:15:53Z</time>
      </trkpt>
      <trkpt lat="44.36386" lon="3.74529">
        <ele>966.9</ele>
        <time>2020-08-20T10:18:21Z</time>
      </trkpt>
      <trkpt lat="44.36328" lon="3.74625">
        <ele>963.4</ele>
        <time>2020-08-20T10:18:36Z</time>
      </trkpt>
      <trkpt lat="44.36296" lon="3.74496">
        <ele>950.6</ele>
        <time>2020-08-20T10:19:30Z</time>
      </trkpt>
      <trkpt lat="44.3632" lon="3.74358">
        <ele>944.4</ele>
        <time>2020-08-20T10:19:55Z</time>
      </trkpt>
      <trkpt lat="44.36236" lon="3.74417">
        <ele>940.9</ele>
        <time>2020-08-20T10:20:30Z</time>
      </trkpt>
      <trkpt lat="44.36183" lon="3.74525">
        <ele>946.1</ele>
        <time>2020-08-20T10:22:29Z</time>
      </trkpt>
      <trkpt lat="44.36168" lon="3.74659">
        <ele>944.4</ele>
        <time>2020-08-20T10:23:30Z</time>
      </trkpt>
    </trkseg>
  </trk>
</gpx>